Time;durP1;ratioP1;P1;durP2;ratioP2;P2;SDS_P1;SDS_P2;PMS_P1;PMS_P2;Temp;Humidity;BMP_temperature;BMP_pressure;BME280_temperature;BME280_humidity;BME280_pressure;Samples;Min_cycle;Max_cycle;Signal;HPM_P1;HPM_P2
2021/01/29 00:01:47;;;;;;;1.17;1.07;;;8.90;99.90;;;;;;5018654;28;20178;-66
2021/01/29 00:04:12;;;;;;;1.17;0.90;;;8.90;99.90;;;;;;5036260;28;20201;-66
2021/01/29 00:06:38;;;;;;;3.00;1.00;;;8.80;99.90;;;;;;5035063;28;20323;-66
2021/01/29 00:09:03;;;;;;;0.93;0.90;;;8.80;99.90;;;;;;5036331;28;20600;-66
2021/01/29 00:11:29;;;;;;;1.90;1.03;;;8.80;99.90;;;;;;5035725;28;20265;-66
2021/01/29 00:13:55;;;;;;;0.80;0.80;;;8.80;99.90;;;;;;5013124;28;20267;-66
2021/01/29 00:16:20;;;;;;;1.37;1.10;;;8.80;99.90;;;;;;5034900;28;20259;-66
2021/01/29 00:18:46;;;;;;;2.70;1.10;;;8.80;99.90;;;;;;5035539;28;20178;-66
2021/01/29 00:21:11;;;;;;;1.43;1.00;;;8.80;99.90;;;;;;5036093;28;20174;-66
2021/01/29 00:23:37;;;;;;;1.63;0.90;;;8.80;99.90;;;;;;5035840;28;20232;-66
2021/01/29 00:26:03;;;;;;;2.20;0.77;;;8.80;99.90;;;;;;5034883;28;20185;-67
2021/01/29 00:28:28;;;;;;;1.00;1.00;;;8.70;99.90;;;;;;5031654;28;20182;-66
2021/01/29 00:30:54;;;;;;;1.30;1.00;;;8.60;99.90;;;;;;5035479;28;20775;-66
2021/01/29 00:33:22;;;;;;;1.57;1.20;;;8.60;99.90;;;;;;5036030;28;20688;-66
2021/01/29 00:35:48;;;;;;;1.40;1.30;;;8.50;99.90;;;;;;5034664;28;20467;-66
2021/01/29 00:38:14;;;;;;;1.57;0.73;;;8.40;99.90;;;;;;5035594;28;20947;-66
2021/01/29 00:40:40;;;;;;;1.10;0.90;;;8.40;99.90;;;;;;5035504;28;20637;-66
2021/01/29 00:43:06;;;;;;;0.80;0.80;;;8.40;99.90;;;;;;5035858;28;20229;-66
2021/01/29 00:45:34;;;;;;;2.40;1.07;;;8.40;99.90;;;;;;5034951;28;20182;-66
2021/01/29 00:48:00;;;;;;;1.47;0.90;;;8.40;99.90;;;;;;5035357;28;20424;-66
2021/01/29 00:50:25;;;;;;;1.47;1.37;;;8.40;99.90;;;;;;5035673;28;20851;-66
2021/01/29 00:52:51;;;;;;;1.40;1.20;;;8.40;99.90;;;;;;5034900;28;20235;-66
2021/01/29 00:55:19;;;;;;;2.60;1.00;;;8.40;99.90;;;;;;5034974;28;20231;-66
2021/01/29 00:57:44;;;;;;;1.33;1.23;;;8.50;99.90;;;;;;5035883;28;20209;-66
2021/01/29 01:00:12;;;;;;;2.53;1.20;;;8.50;99.90;;;;;;5035518;28;20518;-66
2021/01/29 01:02:38;;;;;;;2.87;1.23;;;8.50;99.90;;;;;;5034977;28;20198;-66
2021/01/29 01:05:05;;;;;;;1.47;1.37;;;8.50;99.90;;;;;;5035471;28;20497;-66
2021/01/29 01:07:30;;;;;;;2.40;1.43;;;8.50;99.90;;;;;;5034699;28;20277;-66
2021/01/29 01:09:56;;;;;;;1.73;1.63;;;8.50;99.90;;;;;;5035592;28;20519;-66
2021/01/29 01:12:23;;;;;;;1.50;1.40;;;8.60;99.90;;;;;;5031859;28;20194;-66
2021/01/29 01:14:50;;;;;;;3.33;1.27;;;8.60;99.90;;;;;;5031320;28;20523;-66
2021/01/29 01:17:16;;;;;;;2.03;1.87;;;8.60;99.90;;;;;;5031601;28;20551;-66
2021/01/29 01:19:41;;;;;;;1.33;1.23;;;8.60;99.90;;;;;;5032097;28;20536;-66
2021/01/29 01:22:08;;;;;;;1.50;1.40;;;8.60;99.90;;;;;;5032246;28;20436;-66
2021/01/29 01:24:40;;;;;;;1.43;1.33;;;8.60;99.90;;;;;;5031957;28;20224;-66
2021/01/29 01:27:16;;;;;;;1.30;1.20;;;8.60;99.90;;;;;;5019351;28;20789;-66
2021/01/29 01:29:43;;;;;;;1.57;1.47;;;8.60;99.90;;;;;;5032287;28;20435;-66
2021/01/29 01:32:08;;;;;;;2.20;1.50;;;8.60;99.90;;;;;;5032195;28;20622;-67
2021/01/29 01:34:34;;;;;;;1.77;1.43;;;8.60;99.90;;;;;;5031682;28;20441;-66
2021/01/29 01:37:01;;;;;;;1.53;1.43;;;8.60;99.90;;;;;;5030553;28;20263;-66
2021/01/29 01:39:26;;;;;;;1.60;1.30;;;8.60;99.90;;;;;;5031728;28;20550;-66
2021/01/29 01:41:52;;;;;;;2.93;1.33;;;8.50;99.90;;;;;;5031729;28;20428;-66
2021/01/29 01:44:40;;;;;;;1.63;1.53;;;8.50;99.90;;;;;;5031421;28;20256;-66
2021/01/29 01:47:06;;;;;;;1.60;1.50;;;8.50;99.90;;;;;;5018284;28;20436;-66
2021/01/29 01:49:32;;;;;;;1.30;1.20;;;8.50;99.90;;;;;;5031361;28;20444;-66
2021/01/29 01:52:14;;;;;;;1.90;1.80;;;8.50;99.90;;;;;;5031723;28;20275;-66
2021/01/29 01:54:48;;;;;;;1.13;1.13;;;8.50;99.90;;;;;;5030935;28;21056;-66
2021/01/29 01:57:16;;;;;;;1.77;1.67;;;8.50;99.90;;;;;;5031040;28;20826;-66
2021/01/29 01:59:46;;;;;;;1.57;1.47;;;8.50;99.90;;;;;;5031828;28;20472;-66
2021/01/29 02:02:14;;;;;;;1.40;1.30;;;8.50;99.90;;;;;;5032198;28;20807;-66
2021/01/29 02:04:43;;;;;;;6.93;1.53;;;8.50;99.90;;;;;;5031655;28;20486;-66
2021/01/29 02:07:26;;;;;;;1.50;1.40;;;8.50;99.90;;;;;;5030916;28;20775;-66
2021/01/29 02:09:52;;;;;;;1.40;1.30;;;8.40;99.90;;;;;;5032062;28;20833;-66
2021/01/29 02:12:19;;;;;;;1.60;1.50;;;8.40;99.90;;;;;;5031349;28;20441;-66
2021/01/29 02:14:45;;;;;;;1.50;1.40;;;8.40;99.90;;;;;;5031385;28;20192;-67
2021/01/29 02:17:58;;;;;;;1.40;1.30;;;8.40;99.90;;;;;;5009441;28;20457;-66
2021/01/29 02:20:56;;;;;;;1.63;1.33;;;8.40;99.90;;;;;;5030191;28;20437;-66
2021/01/29 02:23:40;;;;;;;2.10;1.60;;;8.40;99.90;;;;;;5021941;28;20457;-66
2021/01/29 02:26:20;;;;;;;3.53;1.20;;;8.40;99.90;;;;;;5030185;28;20487;-66
2021/01/29 02:29:07;;;;;;;1.97;1.30;;;8.50;99.90;;;;;;5030670;28;20527;-66
2021/01/29 02:31:47;;;;;;;1.00;1.00;;;8.50;99.90;;;;;;5031292;28;20432;-66
2021/01/29 02:34:54;;;;;;;0.90;0.90;;;8.50;99.90;;;;;;5030624;28;20990;-66
2021/01/29 02:37:44;;;;;;;2.03;0.87;;;8.50;99.90;;;;;;5024950;28;20932;-66
2021/01/29 02:40:21;;;;;;;1.10;1.00;;;8.50;99.90;;;;;;5030550;28;20444;-66
2021/01/29 02:42:58;;;;;;;1.07;0.97;;;8.40;99.90;;;;;;5029983;28;20460;-67
2021/01/29 02:45:27;;;;;;;1.50;1.27;;;8.40;99.90;;;;;;5030455;28;20927;-66
2021/01/29 02:48:19;;;;;;;1.73;0.97;;;8.40;99.90;;;;;;5030654;28;20983;-66
2021/01/29 02:50:58;;;;;;;0.90;0.90;;;8.40;99.90;;;;;;5028753;28;20934;-66
2021/01/29 02:53:37;;;;;;;1.43;1.20;;;8.40;99.90;;;;;;5023896;28;20521;-66
2021/01/29 02:56:26;;;;;;;1.60;0.90;;;8.40;99.90;;;;;;5029688;28;20457;-66
2021/01/29 02:59:11;;;;;;;1.30;1.20;;;8.40;99.90;;;;;;5029540;28;20472;-66
2021/01/29 03:01:50;;;;;;;2.83;1.10;;;8.40;99.90;;;;;;5030385;28;20429;-66
2021/01/29 03:04:20;;;;;;;1.83;1.47;;;8.40;99.90;;;;;;5030174;28;20547;-67
2021/01/29 03:07:12;;;;;;;1.13;1.00;;;8.40;99.90;;;;;;5029092;28;20479;-66
2021/01/29 03:09:53;;;;;;;3.13;0.90;;;8.40;99.90;;;;;;5030065;28;20432;-67
2021/01/29 03:12:25;;;;;;;1.03;0.93;;;8.40;99.90;;;;;;5029845;28;20478;-67
2021/01/29 03:15:00;;;;;;;1.30;1.03;;;8.50;99.90;;;;;;5069942;22;20484;-67
2021/01/29 03:17:35;;;;;;;0.80;0.80;;;8.50;99.90;;;;;;5049182;28;20468;-67
2021/01/29 03:20:10;;;;;;;1.00;1.00;;;8.50;99.90;;;;;;5049875;28;20443;-65
2021/01/29 03:22:43;;;;;;;1.87;0.90;;;8.50;99.90;;;;;;5047037;28;20488;-65
2021/01/29 03:25:19;;;;;;;1.07;0.97;;;8.50;99.90;;;;;;5029695;28;20433;-65
2021/01/29 03:27:52;;;;;;;1.30;1.10;;;8.50;99.90;;;;;;5030120;28;20439;-65
2021/01/29 03:30:32;;;;;;;0.80;0.80;;;8.50;99.90;;;;;;5029915;28;20524;-64
2021/01/29 03:33:00;;;;;;;1.50;1.03;;;8.60;99.90;;;;;;5030144;28;21711;-64
2021/01/29 03:35:33;;;;;;;1.40;1.07;;;8.50;99.90;;;;;;5028960;28;20432;-64
2021/01/29 03:38:22;;;;;;;1.80;1.00;;;8.60;99.90;;;;;;5030506;28;20522;-64
2021/01/29 03:41:00;;;;;;;1.60;0.60;;;8.60;99.90;;;;;;5028435;28;20429;-64
2021/01/29 03:43:37;;;;;;;1.33;1.07;;;8.60;99.90;;;;;;5030388;28;20452;-65
2021/01/29 03:46:17;;;;;;;5.23;1.00;;;8.60;99.90;;;;;;5029244;28;20963;-64
2021/01/29 03:48:54;;;;;;;1.10;1.00;;;8.60;99.90;;;;;;5030005;28;20514;-65
2021/01/29 03:51:35;;;;;;;1.60;1.30;;;8.60;99.90;;;;;;5029822;28;20523;-65
2021/01/29 03:54:20;;;;;;;0.83;0.80;;;8.60;99.90;;;;;;5029213;28;20452;-65
2021/01/29 03:57:03;;;;;;;1.57;1.17;;;8.60;99.90;;;;;;5027963;28;20468;-65
2021/01/29 03:59:34;;;;;;;1.13;1.03;;;8.60;99.90;;;;;;5029617;28;20472;-65
2021/01/29 04:02:41;;;;;;;1.13;1.03;;;8.50;99.90;;;;;;5025756;28;20498;-65
2021/01/29 04:05:44;;;;;;;1.30;0.70;;;8.50;99.90;;;;;;4978842;28;20472;-65
2021/01/29 04:08:21;;;;;;;1.23;1.00;;;8.50;99.90;;;;;;5013256;28;20846;-65
2021/01/29 04:10:51;;;;;;;1.00;0.80;;;8.50;99.90;;;;;;5027360;28;20563;-65
2021/01/29 04:13:23;;;;;;;0.90;0.80;;;8.40;99.90;;;;;;5029317;28;21052;-65
2021/01/29 04:15:53;;;;;;;1.43;0.97;;;8.40;99.90;;;;;;5028254;28;20465;-64
2021/01/29 04:18:31;;;;;;;1.20;1.10;;;8.40;99.90;;;;;;5029411;28;20425;-65
2021/01/29 04:21:10;;;;;;;1.07;0.97;;;8.40;99.90;;;;;;5029445;28;20719;-65
2021/01/29 04:23:48;;;;;;;1.93;0.90;;;8.40;99.90;;;;;;5029034;28;20456;-65
2021/01/29 04:26:19;;;;;;;5.70;0.90;;;8.40;99.90;;;;;;5010383;28;20989;-65
2021/01/29 04:28:49;;;;;;;0.60;0.60;;;8.40;99.90;;;;;;5029085;28;20571;-65
2021/01/29 04:31:17;;;;;;;1.33;0.70;;;8.40;99.90;;;;;;5029454;28;20425;-65
2021/01/29 04:33:58;;;;;;;1.80;0.80;;;8.40;99.90;;;;;;5029274;28;20492;-65
2021/01/29 04:36:29;;;;;;;1.27;0.70;;;8.30;99.90;;;;;;5027910;28;20460;-65
2021/01/29 04:39:06;;;;;;;0.70;0.70;;;8.30;99.90;;;;;;5029280;28;20761;-65
2021/01/29 04:41:31;;;;;;;0.90;0.90;;;8.30;99.90;;;;;;5029232;28;20459;-64
2021/01/29 04:44:24;;;;;;;1.37;1.27;;;8.30;99.90;;;;;;5029340;28;20472;-65
2021/01/29 04:47:20;;;;;;;1.57;0.70;;;8.30;99.90;;;;;;5028731;28;20190;-65
2021/01/29 04:50:12;;;;;;;1.47;0.60;;;8.20;99.90;;;;;;5033144;28;20420;-64
2021/01/29 04:52:40;;;;;;;1.07;0.70;;;8.20;99.90;;;;;;5032219;28;20439;-65
2021/01/29 04:55:26;;;;;;;0.93;0.80;;;8.10;99.90;;;;;;5032714;28;20428;-65
2021/01/29 04:57:59;;;;;;;1.03;0.70;;;8.10;99.90;;;;;;5027794;28;20947;-64
2021/01/29 05:00:54;;;;;;;0.80;0.80;;;8.10;99.90;;;;;;5029861;28;20424;-65
2021/01/29 05:04:03;;;;;;;1.40;0.80;;;8.10;99.90;;;;;;5021114;28;20449;-65
2021/01/29 05:06:50;;;;;;;1.37;0.80;;;8.10;99.90;;;;;;5031452;28;20946;-65
2021/01/29 05:09:34;;;;;;;1.03;0.93;;;8.10;99.90;;;;;;5024775;28;20431;-65
2021/01/29 05:12:27;;;;;;;1.07;0.60;;;8.10;99.90;;;;;;5032667;28;20440;-65
2021/01/29 05:15:30;;;;;;;1.83;0.60;;;8.20;99.90;;;;;;5031504;28;20472;-64
2021/01/29 05:18:08;;;;;;;0.60;0.60;;;8.20;99.90;;;;;;5024830;28;20808;-67
2021/01/29 05:20:36;;;;;;;0.83;0.70;;;8.20;99.90;;;;;;5031145;28;20460;-67
2021/01/29 05:23:16;;;;;;;1.33;0.67;;;8.20;99.90;;;;;;5032473;28;20487;-67
2021/01/29 05:25:53;;;;;;;0.93;0.50;;;8.30;99.90;;;;;;5031615;28;20534;-67
2021/01/29 05:28:42;;;;;;;3.03;0.60;;;8.30;99.90;;;;;;5032492;28;20425;-65
2021/01/29 05:31:31;;;;;;;1.37;0.60;;;8.30;99.90;;;;;;5032351;28;20436;-67
2021/01/29 05:34:08;;;;;;;0.73;0.73;;;8.20;99.90;;;;;;5032189;28;20831;-67
2021/01/29 05:37:02;;;;;;;0.80;0.60;;;8.20;99.90;;;;;;5030838;28;20811;-67
2021/01/29 05:40:06;;;;;;;0.60;0.60;;;8.20;99.90;;;;;;5032389;28;21002;-66
2021/01/29 05:43:05;;;;;;;1.40;0.60;;;8.20;99.90;;;;;;5031967;28;20429;-64
2021/01/29 05:46:00;;;;;;;0.80;0.80;;;8.10;99.90;;;;;;5020778;28;20454;-64
2021/01/29 05:48:44;;;;;;;0.63;0.50;;;8.10;99.90;;;;;;5029872;28;20468;-64
2021/01/29 05:51:36;;;;;;;0.97;0.87;;;8.00;99.90;;;;;;5028297;28;20436;-64
2021/01/29 05:54:23;;;;;;;0.70;0.70;;;8.00;99.90;;;;;;5029343;28;21081;-64
2021/01/29 05:57:10;;;;;;;1.93;1.30;;;8.00;99.90;;;;;;5025053;28;20468;-64
2021/01/29 06:00:03;;;;;;;0.77;0.77;;;7.90;99.90;;;;;;5031741;28;20421;-64
2021/01/29 06:02:41;;;;;;;0.90;0.80;;;7.90;99.90;;;;;;5027693;28;20470;-64
2021/01/29 06:05:35;;;;;;;0.70;0.70;;;7.90;99.90;;;;;;5022278;28;20424;-64
2021/01/29 06:08:12;;;;;;;1.30;1.20;;;7.80;99.90;;;;;;5031182;28;20432;-64
2021/01/29 06:11:18;;;;;;;0.60;0.60;;;7.80;99.90;;;;;;5031335;28;20481;-64
2021/01/29 06:14:08;;;;;;;0.90;0.90;;;7.80;99.90;;;;;;5030308;28;20471;-64
2021/01/29 06:16:55;;;;;;;0.90;0.77;;;7.80;99.90;;;;;;5030339;28;20898;-64
2021/01/29 06:19:42;;;;;;;0.90;0.90;;;7.80;99.90;;;;;;5023320;28;20957;-64
2021/01/29 06:22:35;;;;;;;1.97;1.50;;;7.90;99.90;;;;;;5031370;28;20970;-64
2021/01/29 06:25:08;;;;;;;1.33;1.23;;;7.90;99.90;;;;;;5031227;28;20448;-64
2021/01/29 06:28:01;;;;;;;2.40;1.47;;;7.90;99.90;;;;;;5030609;28;20428;-64
2021/01/29 06:30:35;;;;;;;1.50;1.13;;;7.90;99.90;;;;;;5029865;28;20437;-64
2021/01/29 06:33:25;;;;;;;2.23;1.10;;;7.90;99.90;;;;;;5031094;28;20448;-64
2021/01/29 06:36:10;;;;;;;1.30;1.20;;;7.90;99.90;;;;;;5029878;28;20464;-64
2021/01/29 06:39:08;;;;;;;0.83;0.83;;;8.00;99.90;;;;;;5031173;28;20435;-64
2021/01/29 06:41:33;;;;;;;1.00;0.90;;;8.10;99.90;;;;;;4945993;28;20445;-64
2021/01/29 06:44:17;;;;;;;2.57;0.80;;;8.20;99.90;;;;;;5029805;28;20530;-64
2021/01/29 06:47:00;;;;;;;1.63;1.00;;;8.20;99.90;;;;;;5029883;28;20179;-64
2021/01/29 06:49:55;;;;;;;1.10;0.70;;;8.20;99.90;;;;;;5030241;28;20875;-66
2021/01/29 06:52:32;;;;;;;0.67;0.63;;;8.20;99.90;;;;;;5030587;28;21038;-66
2021/01/29 06:55:28;;;;;;;1.07;0.60;;;8.20;99.90;;;;;;5026682;28;21227;-66
2021/01/29 06:58:05;;;;;;;0.60;0.57;;;8.20;99.90;;;;;;5030377;28;20873;-66
2021/01/29 07:01:01;;;;;;;0.80;0.50;;;8.20;99.90;;;;;;5028401;28;20539;-67
2021/01/29 07:03:52;;;;;;;0.90;0.60;;;8.30;99.90;;;;;;5029130;28;20771;-67
2021/01/29 07:06:52;;;;;;;0.73;0.60;;;8.30;99.90;;;;;;5029944;28;20437;-67
2021/01/29 07:09:39;;;;;;;1.33;0.50;;;8.20;99.90;;;;;;5024641;28;20444;-67
2021/01/29 07:12:23;;;;;;;0.70;0.63;;;8.20;99.90;;;;;;5029847;28;20440;-67
2021/01/29 07:15:14;;;;;;;0.60;0.60;;;8.30;99.90;;;;;;5029903;28;20465;-67
2021/01/29 07:18:14;;;;;;;1.23;0.60;;;8.20;99.90;;;;;;5024621;28;20487;-67
2021/01/29 07:20:58;;;;;;;1.27;0.60;;;8.20;99.90;;;;;;5029307;28;20837;-67
2021/01/29 07:24:00;;;;;;;1.60;0.70;;;8.20;99.90;;;;;;5029684;28;20463;-67
2021/01/29 07:26:57;;;;;;;5.93;1.47;;;8.30;99.90;;;;;;5029256;28;20514;-67
2021/01/29 07:30:01;;;;;;;0.80;0.57;;;8.30;99.90;;;;;;5027438;28;20428;-67
2021/01/29 07:32:44;;;;;;;0.70;0.60;;;8.30;99.90;;;;;;5025861;28;20429;-67
2021/01/29 07:35:38;;;;;;;1.93;0.70;;;8.40;99.90;;;;;;5025417;28;20524;-67
2021/01/29 07:38:57;;;;;;;1.33;1.23;;;8.50;99.90;;;;;;5030004;28;20443;-67
2021/01/29 07:41:35;;;;;;;1.73;1.00;;;8.60;99.90;;;;;;5027068;28;20524;-67
2021/01/29 07:44:38;;;;;;;1.80;1.17;;;8.60;99.90;;;;;;5030020;28;20440;-67
2021/01/29 07:47:29;;;;;;;1.83;0.90;;;8.60;99.90;;;;;;4988577;28;20436;-67
2021/01/29 07:50:18;;;;;;;2.60;0.90;;;8.70;99.90;;;;;;5029745;28;20433;-67
2021/01/29 07:52:53;;;;;;;0.90;0.80;;;8.70;99.90;;;;;;5028608;28;20523;-67
2021/01/29 07:55:25;;;;;;;0.63;0.50;;;8.70;99.90;;;;;;5028425;28;20470;-67
2021/01/29 07:58:00;;;;;;;1.00;0.57;;;8.80;99.90;;;;;;5023784;28;20515;-67
2021/01/29 08:00:40;;;;;;;1.23;0.70;;;8.80;99.90;;;;;;5029213;28;20432;-67
2021/01/29 08:03:35;;;;;;;1.77;1.03;;;8.90;99.90;;;;;;5016999;28;20995;-67
2021/01/29 08:06:19;;;;;;;0.87;0.70;;;8.90;99.90;;;;;;5028703;28;21001;-67
2021/01/29 08:08:49;;;;;;;1.40;0.70;;;9.00;99.90;;;;;;5027470;28;20510;-67
2021/01/29 08:11:15;;;;;;;0.80;0.80;;;9.10;99.90;;;;;;5029078;28;20844;-67
2021/01/29 08:13:59;;;;;;;1.90;0.60;;;9.20;99.90;;;;;;5029174;28;20828;-67
2021/01/29 08:16:59;;;;;;;1.23;0.73;;;9.20;99.90;;;;;;5028205;28;20873;-68
2021/01/29 08:19:44;;;;;;;0.80;0.77;;;9.30;99.90;;;;;;5019661;28;20786;-67
2021/01/29 08:22:32;;;;;;;1.50;1.17;;;9.30;99.90;;;;;;5028934;28;20428;-67
2021/01/29 08:25:25;;;;;;;2.13;1.20;;;9.20;99.90;;;;;;5033158;28;20912;-67
2021/01/29 08:28:35;;;;;;;1.30;0.90;;;9.10;99.90;;;;;;5033409;28;20451;-67
2021/01/29 08:31:09;;;;;;;1.50;0.90;;;9.10;99.90;;;;;;5032971;28;20555;-67
2021/01/29 08:33:53;;;;;;;0.80;0.73;;;9.20;99.90;;;;;;5033559;28;20455;-67
2021/01/29 08:36:36;;;;;;;1.10;1.00;;;9.30;99.90;;;;;;5032106;28;20460;-67
2021/01/29 08:39:20;;;;;;;0.77;0.77;;;9.30;99.90;;;;;;5033534;28;20437;-67
2021/01/29 08:42:18;;;;;;;2.60;0.97;;;9.30;99.90;;;;;;5017375;28;20870;-67
2021/01/29 08:45:02;;;;;;;1.13;1.03;;;9.40;99.90;;;;;;5032441;28;20449;-69
2021/01/29 08:47:54;;;;;;;1.37;0.80;;;9.40;99.90;;;;;;5031760;28;20444;-67
2021/01/29 08:50:37;;;;;;;1.67;0.90;;;9.50;99.90;;;;;;5031563;28;20490;-67
2021/01/29 08:53:10;;;;;;;0.77;0.70;;;9.60;99.90;;;;;;5031796;28;20652;-67
2021/01/29 08:55:53;;;;;;;1.47;0.70;;;9.50;99.90;;;;;;5031866;28;20441;-67
2021/01/29 08:58:26;;;;;;;0.70;0.67;;;9.50;99.90;;;;;;5032632;28;20527;-67
2021/01/29 09:01:18;;;;;;;0.60;0.60;;;9.50;99.90;;;;;;5032878;28;20428;-67
2021/01/29 09:03:52;;;;;;;0.70;0.70;;;9.60;99.90;;;;;;5032997;28;20804;-68
2021/01/29 09:06:26;;;;;;;1.83;1.00;;;9.80;99.90;;;;;;5031619;28;20444;-68
2021/01/29 09:09:01;;;;;;;0.90;0.70;;;10.00;99.90;;;;;;5031902;28;20515;-68
2021/01/29 09:11:42;;;;;;;0.60;0.60;;;9.80;99.90;;;;;;5032519;28;20446;-68
2021/01/29 09:14:18;;;;;;;1.00;0.70;;;9.70;99.90;;;;;;5059528;22;20490;-68
2021/01/29 09:16:45;;;;;;;1.00;0.90;;;9.50;99.90;;;;;;5042503;28;20470;-68
2021/01/29 09:19:19;;;;;;;0.70;0.70;;;9.50;99.90;;;;;;5047373;28;20432;-68
2021/01/29 09:22:09;;;;;;;1.20;0.60;;;9.50;99.90;;;;;;5050741;28;20439;-69
2021/01/29 09:24:54;;;;;;;2.10;0.70;;;9.60;99.90;;;;;;5023083;28;20449;-68
2021/01/29 09:27:48;;;;;;;1.47;0.77;;;9.80;99.90;;;;;;5027210;28;20504;-69
2021/01/29 09:30:14;;;;;;;2.23;1.90;;;11.10;99.90;;;;;;5028628;28;20424;-69
2021/01/29 09:33:09;;;;;;;2.20;1.07;;;13.30;99.90;;;;;;5031258;28;20925;-69
2021/01/29 09:35:50;;;;;;;2.87;1.10;;;14.50;99.90;;;;;;5015678;28;20328;-69
2021/01/29 09:38:22;;;;;;;1.70;1.10;;;15.00;99.90;;;;;;5021580;28;20942;-69
2021/01/29 09:40:54;;;;;;;5.30;1.43;;;15.40;99.90;;;;;;5031972;28;20426;-69
2021/01/29 09:43:33;;;;;;;1.23;0.97;;;14.30;99.90;;;;;;5031708;28;20452;-69
2021/01/29 09:45:59;;;;;;;2.40;1.07;;;14.60;99.90;;;;;;5031444;28;20478;-68
2021/01/29 09:48:26;;;;;;;4.20;1.40;;;14.30;99.90;;;;;;5031242;28;20959;-69
2021/01/29 09:51:18;;;;;;;1.80;1.03;;;14.40;99.90;;;;;;5031663;28;20482;-69
2021/01/29 09:53:53;;;;;;;2.53;1.00;;;14.30;99.90;;;;;;5025310;28;20495;-69
2021/01/29 09:56:25;;;;;;;3.10;1.20;;;14.40;99.90;;;;;;5031112;28;20461;-68
2021/01/29 09:59:15;;;;;;;2.03;1.30;;;15.00;99.90;;;;;;5031529;28;20840;-69
2021/01/29 10:01:46;;;;;;;2.30;1.37;;;16.30;99.90;;;;;;5023905;28;20483;-69
2021/01/29 10:04:23;;;;;;;2.10;1.20;;;16.40;99.90;;;;;;5031100;28;20814;-69
2021/01/29 10:07:05;;;;;;;2.77;1.23;;;17.20;99.90;;;;;;5030715;28;20958;-69
2021/01/29 10:09:47;;;;;;;3.53;1.80;;;18.30;99.90;;;;;;5013148;28;20425;-69
2021/01/29 10:12:23;;;;;;;2.50;1.27;;;17.80;99.90;;;;;;5031309;28;20467;-68
2021/01/29 10:15:10;;;;;;;1.70;1.60;;;18.20;99.90;;;;;;5031446;28;20452;-69
2021/01/29 10:17:45;;;;;;;4.00;1.30;;;16.40;99.90;;;;;;5028448;28;20936;-69
2021/01/29 10:20:21;;;;;;;3.93;1.20;;;14.80;99.90;;;;;;5020765;28;20529;-69
2021/01/29 10:23:20;;;;;;;3.40;1.20;;;13.80;99.90;;;;;;5031388;28;20428;-69
2021/01/29 10:26:19;;;;;;;4.33;1.27;;;12.60;99.90;;;;;;5028026;28;20436;-69
2021/01/29 10:29:03;;;;;;;3.50;1.50;;;12.20;99.90;;;;;;5029273;28;20931;-69
2021/01/29 10:31:41;;;;;;;4.50;1.67;;;12.50;99.90;;;;;;5030600;28;20455;-69
2021/01/29 10:34:31;;;;;;;5.33;1.40;;;13.90;99.90;;;;;;5030449;28;20455;-69
2021/01/29 10:37:27;;;;;;;2.67;1.77;;;15.60;99.90;;;;;;5030512;28;20461;-69
2021/01/29 10:40:09;;;;;;;2.50;1.70;;;17.60;99.90;;;;;;5030111;28;20444;-69
2021/01/29 10:42:43;;;;;;;4.10;2.13;;;18.60;98.50;;;;;;5030495;28;20502;-69
2021/01/29 10:45:13;;;;;;;3.33;1.30;;;19.20;93.80;;;;;;5029779;28;20452;-68
2021/01/29 10:48:06;;;;;;;2.27;1.30;;;18.40;94.60;;;;;;5017247;28;20475;-68
2021/01/29 10:50:46;;;;;;;2.50;1.40;;;18.60;94.70;;;;;;5029591;28;20441;-69
2021/01/29 10:53:18;;;;;;;3.13;1.20;;;19.30;93.80;;;;;;5030195;28;20455;-69
2021/01/29 10:56:00;;;;;;;1.10;1.00;;;19.90;91.40;;;;;;5029928;28;20444;-69
2021/01/29 10:58:57;;;;;;;3.07;1.23;;;20.60;88.50;;;;;;5033338;28;20447;-69
2021/01/29 11:01:36;;;;;;;1.77;1.50;;;19.80;86.40;;;;;;5034217;28;20463;-69
2021/01/29 11:04:24;;;;;;;1.77;1.40;;;17.90;91.70;;;;;;5030432;28;20480;-70
2021/01/29 11:06:57;;;;;;;2.07;1.83;;;16.10;95.20;;;;;;5020412;28;20448;-70
2021/01/29 11:09:30;;;;;;;4.30;1.97;;;15.50;97.60;;;;;;5030183;28;20451;-69
2021/01/29 11:12:20;;;;;;;4.17;2.13;;;14.70;99.90;;;;;;5030417;28;20463;-69
2021/01/29 11:15:23;;;;;;;3.30;1.80;;;14.20;99.90;;;;;;5029891;28;20469;-70
2021/01/29 11:18:19;;;;;;;2.83;1.70;;;14.00;99.90;;;;;;5028564;28;20833;-69
2021/01/29 11:20:45;;;;;;;6.90;1.90;;;13.90;99.90;;;;;;5024092;28;20844;-70
2021/01/29 11:23:33;;;;;;;3.50;2.30;;;13.40;99.90;;;;;;5029321;28;20441;-69
2021/01/29 11:26:15;;;;;;;3.93;1.90;;;13.10;99.90;;;;;;5028354;28;20436;-70
2021/01/29 11:29:04;;;;;;;2.10;1.60;;;12.70;99.90;;;;;;5029878;28;20675;-69
2021/01/29 11:31:43;;;;;;;3.83;1.40;;;12.60;99.90;;;;;;5029619;28;20437;-69
2021/01/29 11:34:31;;;;;;;3.93;1.47;;;12.30;99.90;;;;;;5029711;28;20471;-69
2021/01/29 11:37:05;;;;;;;4.23;1.47;;;12.10;99.90;;;;;;5028934;28;20464;-69
2021/01/29 11:39:48;;;;;;;3.50;1.63;;;11.80;99.90;;;;;;5029097;28;20444;-68
2021/01/29 11:42:34;;;;;;;3.10;1.70;;;11.70;99.90;;;;;;5030733;28;20808;-68
2021/01/29 11:45:09;;;;;;;6.50;1.83;;;11.90;99.90;;;;;;5029299;28;20548;-67
2021/01/29 11:47:56;;;;;;;3.90;1.37;;;12.00;99.90;;;;;;5027473;28;20455;-68
2021/01/29 11:50:50;;;;;;;2.70;1.60;;;12.00;99.90;;;;;;5029517;28;20491;-68
2021/01/29 11:53:33;;;;;;;4.03;2.00;;;11.90;99.90;;;;;;5029568;28;20519;-67
2021/01/29 11:56:05;;;;;;;3.43;1.23;;;12.10;99.90;;;;;;5020448;28;20464;-69
2021/01/29 11:58:57;;;;;;;5.53;1.90;;;13.00;99.90;;;;;;5028948;28;20437;-69
2021/01/29 12:01:49;;;;;;;3.50;1.73;;;14.80;99.90;;;;;;5027871;28;20940;-69
2021/01/29 12:04:20;;;;;;;6.70;3.13;;;16.00;99.90;;;;;;5029721;28;20448;-69
2021/01/29 12:06:58;;;;;;;2.87;1.47;;;15.40;99.90;;;;;;5028569;28;20440;-69
2021/01/29 12:10:05;;;;;;;4.90;1.97;;;14.50;99.90;;;;;;5028316;28;20464;-69
2021/01/29 12:12:56;;;;;;;3.00;1.47;;;13.50;99.90;;;;;;5006042;28;20471;-68
2021/01/29 12:15:45;;;;;;;3.00;1.60;;;13.20;99.90;;;;;;5028925;28;20511;-69
2021/01/29 12:18:12;;;;;;;3.60;2.00;;;13.20;99.90;;;;;;5009977;28;20763;-69
2021/01/29 12:20:41;;;;;;;2.40;1.50;;;12.70;99.90;;;;;;5029436;28;20429;-69
2021/01/29 12:23:49;;;;;;;5.57;1.67;;;12.50;99.90;;;;;;5029005;28;20922;-69
2021/01/29 12:26:52;;;;;;;9.03;1.80;;;12.80;99.90;;;;;;5029201;28;20431;-69
2021/01/29 12:29:39;;;;;;;4.93;1.67;;;12.50;99.90;;;;;;5028976;28;20424;-68
2021/01/29 12:32:37;;;;;;;3.73;1.63;;;12.30;99.90;;;;;;5029205;28;20485;-69
2021/01/29 12:35:09;;;;;;;4.60;1.73;;;12.10;99.90;;;;;;5028548;28;20453;-69
2021/01/29 12:37:47;;;;;;;8.63;1.63;;;11.90;99.90;;;;;;5027461;28;20457;-69
2021/01/29 12:40:47;;;;;;;6.40;1.97;;;11.80;99.90;;;;;;5030238;28;20440;-68
2021/01/29 12:43:42;;;;;;;7.00;2.40;;;11.60;99.90;;;;;;5026790;28;20489;-68
2021/01/29 12:46:15;;;;;;;2.70;1.40;;;11.50;99.90;;;;;;5024118;28;20439;-66
2021/01/29 12:48:51;;;;;;;3.43;1.77;;;11.50;99.90;;;;;;5029051;28;20967;-69
2021/01/29 12:51:28;;;;;;;4.23;1.37;;;11.60;99.90;;;;;;5028720;28;20973;-69
2021/01/29 12:54:04;;;;;;;4.10;1.67;;;11.60;99.90;;;;;;5029239;28;20448;-69
2021/01/29 12:56:51;;;;;;;4.20;2.37;;;11.50;99.90;;;;;;5028508;28;20547;-68
2021/01/29 12:59:31;;;;;;;5.07;1.50;;;11.50;99.90;;;;;;5028718;28;20437;-69
2021/01/29 13:02:10;;;;;;;4.10;1.50;;;11.60;99.90;;;;;;5028891;28;20502;-69
2021/01/29 13:05:01;;;;;;;3.03;1.10;;;11.50;99.90;;;;;;5028565;28;21028;-69
2021/01/29 13:07:30;;;;;;;2.00;1.00;;;11.20;99.90;;;;;;5028797;28;20809;-69
2021/01/29 13:10:06;;;;;;;2.37;1.00;;;11.10;99.90;;;;;;5032886;28;20823;-69
2021/01/29 13:12:53;;;;;;;2.00;0.90;;;10.90;99.90;;;;;;5032562;28;20489;-69
2021/01/29 13:15:41;;;;;;;1.23;0.70;;;10.70;99.90;;;;;;5030382;28;20498;-69
2021/01/29 13:18:14;;;;;;;2.73;1.47;;;10.80;99.90;;;;;;5032239;28;20503;-69
2021/01/29 13:20:45;;;;;;;3.93;1.33;;;11.40;99.90;;;;;;5032483;28;20482;-69
2021/01/29 13:23:34;;;;;;;1.50;0.80;;;11.60;99.90;;;;;;5029358;28;20433;-69
2021/01/29 13:26:05;;;;;;;1.47;0.70;;;11.70;99.90;;;;;;5028974;28;20431;-69
2021/01/29 13:28:37;;;;;;;6.00;2.17;;;11.60;99.90;;;;;;5031517;28;20474;-69
2021/01/29 13:31:20;;;;;;;2.33;1.00;;;11.40;99.90;;;;;;5031461;28;20878;-69
2021/01/29 13:33:51;;;;;;;6.37;1.00;;;11.50;99.90;;;;;;5032213;28;20974;-69
2021/01/29 13:36:30;;;;;;;2.23;1.07;;;11.60;99.90;;;;;;5030916;28;20456;-69
2021/01/29 13:39:10;;;;;;;2.60;0.83;;;11.30;99.90;;;;;;5032448;28;20464;-69
2021/01/29 13:41:48;;;;;;;1.73;0.93;;;11.50;99.90;;;;;;5031985;28;20429;-69
2021/01/29 13:44:24;;;;;;;0.87;0.87;;;11.70;99.90;;;;;;5032027;28;20453;-69
2021/01/29 13:46:52;;;;;;;1.27;1.10;;;11.90;99.90;;;;;;5031196;28;20456;-69
2021/01/29 13:49:39;;;;;;;1.97;0.87;;;12.60;99.90;;;;;;5032359;28;20516;-69
2021/01/29 13:52:22;;;;;;;2.53;1.10;;;12.80;99.90;;;;;;5014120;28;20449;-70
2021/01/29 13:54:48;;;;;;;1.80;1.00;;;12.70;99.90;;;;;;5033280;28;20953;-69
2021/01/29 13:57:24;;;;;;;1.27;0.73;;;12.30;99.90;;;;;;5031119;28;20466;-69
2021/01/29 14:00:18;;;;;;;2.03;0.90;;;12.50;99.90;;;;;;5031683;28;20792;-69
2021/01/29 14:02:52;;;;;;;1.30;0.90;;;12.80;99.90;;;;;;5018566;28;20429;-69